createdAt,value
2022-11-06T00:00:40.740Z,7.73
2022-11-06T00:01:41.353Z,7.71
2022-11-06T00:02:40.762Z,7.77
2022-11-06T00:03:40.716Z,7.73
2022-11-06T00:04:40.712Z,7.76
2022-11-06T00:05:40.954Z,7.74
2022-11-06T00:06:40.693Z,7.83
2022-11-06T00:07:40.688Z,7.77
2022-11-06T00:08:40.691Z,7.83
2022-11-06T00:09:40.677Z,7.81
2022-11-06T00:10:40.693Z,7.76
2022-11-06T00:11:41.655Z,7.76
2022-11-06T00:12:40.656Z,7.73
2022-11-06T00:13:40.680Z,7.78
2022-11-06T00:14:40.646Z,7.80
2022-11-06T00:15:40.678Z,7.77
2022-11-06T00:16:40.654Z,7.80
2022-11-06T00:17:40.641Z,7.77
2022-11-06T00:18:40.626Z,7.74
2022-11-06T00:19:40.620Z,7.76
2022-11-06T00:20:40.604Z,7.78
2022-11-06T00:21:40.603Z,7.77
2022-11-06T00:22:40.594Z,7.76
2022-11-06T00:23:40.587Z,7.77
2022-11-06T00:24:40.585Z,7.77
2022-11-06T00:25:40.567Z,7.78
2022-11-06T00:26:41.911Z,7.71
2022-11-06T00:27:40.567Z,7.77
2022-11-06T00:28:40.564Z,7.76
2022-11-06T00:29:40.576Z,7.76
2022-11-06T00:30:40.540Z,7.83
2022-11-06T00:31:41.245Z,7.83
2022-11-06T00:32:40.533Z,7.73
2022-11-06T00:33:40.517Z,7.83
2022-11-06T00:34:40.507Z,7.78
2022-11-06T00:35:40.539Z,7.86
2022-11-06T00:36:40.963Z,7.81
2022-11-06T00:37:40.497Z,7.77
2022-11-06T00:38:40.488Z,7.81
2022-11-06T00:39:40.481Z,7.84
2022-11-06T00:40:40.477Z,7.80
2022-11-06T00:41:40.463Z,7.81
2022-11-06T00:42:40.648Z,7.76
2022-11-06T00:43:40.485Z,7.76
2022-11-06T00:44:40.457Z,7.80
2022-11-06T00:45:40.461Z,7.84
2022-11-06T00:46:40.429Z,7.83
2022-11-06T00:47:40.490Z,7.86
2022-11-06T00:48:40.422Z,7.98
2022-11-06T00:49:40.421Z,7.95
2022-11-06T00:50:40.411Z,7.88
2022-11-06T00:51:41.165Z,7.83
2022-11-06T00:52:40.397Z,7.91
2022-11-06T00:53:40.393Z,7.87
2022-11-06T00:54:40.383Z,7.87
2022-11-06T00:55:40.377Z,7.92
2022-11-06T00:56:40.367Z,7.91
2022-11-06T00:57:40.371Z,7.98
2022-11-06T00:58:40.374Z,7.88
2022-11-06T00:59:40.353Z,7.98
2022-11-06T01:00:40.341Z,7.86
2022-11-06T01:01:40.540Z,7.86
2022-11-06T01:02:41.168Z,7.86
2022-11-06T01:03:40.324Z,7.91
2022-11-06T01:04:40.323Z,7.91
2022-11-06T01:05:40.312Z,7.95
2022-11-06T01:06:40.301Z,7.80
2022-11-06T01:07:40.302Z,7.86
2022-11-06T01:08:40.297Z,7.86
2022-11-06T01:09:40.732Z,7.80
2022-11-06T01:10:40.543Z,7.83
2022-11-06T01:12:11.289Z,7.91
2022-11-06T01:12:41.268Z,7.83
2022-11-06T01:13:40.256Z,7.81
2022-11-06T01:14:40.260Z,7.76
2022-11-06T01:15:40.682Z,7.69
2022-11-06T01:16:40.267Z,7.68
2022-11-06T01:17:40.346Z,7.68
2022-11-06T01:18:40.230Z,7.61
2022-11-06T01:19:40.234Z,7.58
2022-11-06T01:20:40.217Z,7.47
2022-11-06T01:21:40.212Z,7.55
2022-11-06T01:22:40.405Z,7.50
2022-11-06T01:23:40.200Z,7.55
2022-11-06T01:24:40.309Z,7.54
2022-11-06T01:25:40.215Z,7.57
2022-11-06T01:26:53.285Z,7.44
2022-11-06T01:27:41.749Z,7.47
2022-11-06T01:28:40.170Z,7.46
2022-11-06T01:29:40.155Z,7.50
2022-11-06T01:30:40.151Z,7.47
2022-11-06T01:31:40.166Z,7.43
2022-11-06T01:32:40.142Z,7.50
2022-11-06T01:33:40.157Z,7.46
2022-11-06T01:34:40.123Z,7.43
2022-11-06T01:35:40.159Z,7.43
2022-11-06T01:36:40.107Z,7.31
2022-11-06T01:37:40.162Z,7.39
2022-11-06T01:38:40.547Z,7.33
2022-11-06T01:39:40.087Z,7.50
2022-11-06T01:40:40.090Z,7.47
2022-11-06T01:41:40.091Z,7.44
2022-11-06T01:42:40.065Z,7.36
2022-11-06T01:43:40.065Z,7.40
2022-11-06T01:44:40.060Z,7.42
2022-11-06T01:45:40.052Z,7.42
2022-11-06T01:46:40.905Z,7.34
2022-11-06T01:47:40.033Z,7.29
2022-11-06T01:48:40.027Z,7.31
2022-11-06T01:49:40.050Z,7.21
2022-11-06T01:50:40.020Z,7.26
2022-11-06T01:51:40.010Z,7.19
2022-11-06T01:52:40.007Z,7.08
2022-11-06T01:53:39.993Z,7.07
2022-11-06T01:54:39.985Z,7.04
2022-11-06T01:55:39.991Z,6.96
2022-11-06T01:56:40.036Z,6.97
2022-11-06T01:57:39.973Z,6.97
2022-11-06T01:58:39.966Z,6.88
2022-11-06T01:59:39.952Z,6.93
2022-11-06T02:00:39.959Z,6.88
2022-11-06T02:01:40.104Z,6.79
2022-11-06T02:02:40.131Z,6.85
2022-11-06T02:03:39.930Z,6.82
2022-11-06T02:04:40.585Z,6.74
2022-11-06T02:05:39.936Z,6.73
2022-11-06T02:06:40.009Z,6.60
2022-11-06T02:07:39.902Z,6.65
2022-11-06T02:08:39.904Z,6.56
2022-11-06T02:09:39.895Z,6.73
2022-11-06T02:10:39.893Z,6.57
2022-11-06T02:11:40.154Z,6.61
2022-11-06T02:12:39.863Z,6.68
2022-11-06T02:13:39.850Z,6.63
2022-11-06T02:14:39.857Z,6.56
2022-11-06T02:15:39.847Z,6.70
2022-11-06T02:16:39.828Z,6.63
2022-11-06T02:17:39.828Z,6.64
2022-11-06T02:18:39.822Z,6.61
2022-11-06T02:19:39.811Z,6.61
2022-11-06T02:20:39.838Z,6.71
2022-11-06T02:21:39.827Z,6.65
2022-11-06T02:22:39.797Z,6.60
2022-11-06T02:23:39.784Z,6.65
2022-11-06T02:24:39.794Z,6.67
2022-11-06T02:25:39.770Z,6.71
2022-11-06T02:26:39.765Z,6.73
2022-11-06T02:27:39.763Z,6.74
2022-11-06T02:28:39.752Z,6.82
2022-11-06T02:29:40.192Z,6.78
2022-11-06T02:30:39.763Z,6.85
2022-11-06T02:31:39.733Z,6.78
2022-11-06T02:32:39.737Z,6.73
2022-11-06T02:33:39.718Z,6.73
2022-11-06T02:34:39.715Z,6.85
2022-11-06T02:35:39.711Z,6.82
2022-11-06T02:36:39.812Z,6.83
2022-11-06T02:37:39.817Z,6.81
2022-11-06T02:38:39.693Z,6.85
2022-11-06T02:39:39.680Z,6.79
2022-11-06T02:40:40.097Z,6.86
2022-11-06T02:41:39.669Z,6.85
2022-11-06T02:42:39.675Z,6.78
2022-11-06T02:43:39.689Z,6.89
2022-11-06T02:44:39.710Z,6.82
2022-11-06T02:45:39.630Z,6.82
2022-11-06T02:46:39.625Z,6.75
2022-11-06T02:47:39.626Z,6.82
2022-11-06T02:48:39.896Z,6.89
2022-11-06T02:49:39.613Z,6.81
2022-11-06T02:50:39.606Z,6.71
2022-11-06T02:51:40.207Z,6.83
2022-11-06T02:52:39.587Z,6.91
2022-11-06T02:53:39.760Z,6.79
2022-11-06T02:54:39.579Z,6.78
2022-11-06T02:55:39.565Z,6.93
2022-11-06T02:56:39.572Z,6.81
2022-11-06T02:57:39.599Z,6.96
2022-11-06T02:58:41.599Z,6.93
2022-11-06T02:59:39.554Z,6.92
2022-11-06T03:00:39.542Z,6.86
2022-11-06T03:01:39.681Z,6.92
2022-11-06T03:02:39.776Z,7.01
2022-11-06T03:03:39.507Z,7.00
2022-11-06T03:04:39.522Z,7.00
2022-11-06T03:05:39.502Z,7.07
2022-11-06T03:06:39.491Z,7.04
2022-11-06T03:07:39.508Z,6.97
2022-11-06T03:08:40.176Z,7.01
2022-11-06T03:09:39.492Z,7.01
2022-11-06T03:10:40.125Z,7.08
2022-11-06T03:11:39.463Z,7.10
2022-11-06T03:12:39.448Z,7.03
2022-11-06T03:13:39.449Z,6.99
2022-11-06T03:14:39.443Z,6.99
2022-11-06T03:15:39.429Z,7.06
2022-11-06T03:16:39.477Z,7.10
2022-11-06T03:17:39.419Z,7.10
2022-11-06T03:18:41.573Z,7.01
2022-11-06T03:19:39.409Z,7.08
2022-11-06T03:20:39.397Z,7.15
2022-11-06T03:21:39.397Z,7.13
2022-11-06T03:22:39.407Z,7.15
2022-11-06T03:23:39.373Z,7.16
2022-11-06T03:24:39.417Z,7.16
2022-11-06T03:25:40.405Z,7.16
2022-11-06T03:26:39.357Z,7.21
2022-11-06T03:27:39.367Z,7.16
2022-11-06T03:28:39.344Z,7.15
2022-11-06T03:29:40.306Z,7.13
2022-11-06T03:30:39.332Z,7.18
2022-11-06T03:31:39.335Z,7.13
2022-11-06T03:32:39.324Z,7.22
2022-11-06T03:33:39.328Z,7.08
2022-11-06T03:34:39.311Z,7.03
2022-11-06T03:35:39.307Z,7.15
2022-11-06T03:36:39.299Z,7.08
2022-11-06T03:37:39.292Z,7.08
2022-11-06T03:38:42.208Z,7.04
2022-11-06T03:39:39.273Z,7.03
2022-11-06T03:40:39.273Z,7.03
2022-11-06T03:41:39.309Z,6.99
2022-11-06T03:42:39.272Z,7.04
2022-11-06T03:43:39.269Z,7.11
2022-11-06T03:44:39.242Z,7.00
2022-11-06T03:45:39.243Z,7.08
2022-11-06T03:46:39.237Z,7.00
2022-11-06T03:47:39.226Z,7.00
2022-11-06T03:48:39.226Z,6.96
2022-11-06T03:49:39.218Z,7.08
2022-11-06T03:50:39.219Z,7.03
2022-11-06T03:51:39.229Z,6.99
2022-11-06T03:52:39.202Z,6.97
2022-11-06T03:53:39.183Z,7.06
2022-11-06T03:54:39.180Z,6.99
2022-11-06T03:55:39.177Z,7.03
2022-11-06T03:56:39.782Z,7.07
2022-11-06T03:57:39.186Z,7.06
2022-11-06T03:58:39.706Z,6.99
2022-11-06T03:59:39.144Z,6.91
2022-11-06T04:00:39.289Z,6.89
2022-11-06T04:01:39.280Z,6.91
2022-11-06T04:02:39.241Z,6.92
2022-11-06T04:03:39.125Z,6.92
2022-11-06T04:04:39.110Z,6.97
2022-11-06T04:05:39.099Z,6.91
2022-11-06T04:06:39.097Z,6.96
2022-11-06T04:07:39.424Z,6.93
2022-11-06T04:08:39.089Z,6.89
2022-11-06T04:09:39.081Z,7.03
2022-11-06T04:10:39.067Z,7.06
2022-11-06T04:11:39.059Z,7.03
2022-11-06T04:12:39.229Z,7.01
2022-11-06T04:13:39.229Z,7.03
2022-11-06T04:14:40.208Z,7.10
2022-11-06T04:15:39.040Z,7.00
2022-11-06T04:16:39.031Z,7.03
2022-11-06T04:17:39.067Z,7.04
2022-11-06T04:18:39.016Z,7.08
2022-11-06T04:19:39.010Z,7.03
2022-11-06T04:20:39.028Z,7.04
2022-11-06T04:21:39.000Z,7.07
2022-11-06T04:22:38.983Z,6.99
2022-11-06T04:23:39.005Z,7.01
2022-11-06T04:24:38.980Z,7.07
2022-11-06T04:25:38.971Z,7.07
2022-11-06T04:26:38.971Z,6.97
2022-11-06T04:27:38.956Z,7.04
2022-11-06T04:28:38.949Z,7.00
2022-11-06T04:29:38.970Z,7.11
2022-11-06T04:30:38.930Z,7.03
2022-11-06T04:31:38.950Z,7.11
2022-11-06T04:32:38.921Z,7.06
2022-11-06T04:33:38.922Z,7.03
2022-11-06T04:34:38.910Z,7.03
2022-11-06T04:35:38.901Z,7.08
2022-11-06T04:36:38.900Z,7.03
2022-11-06T04:37:38.895Z,7.07
2022-11-06T04:38:38.981Z,7.06
2022-11-06T04:39:38.881Z,7.06
2022-11-06T04:40:38.879Z,7.11
2022-11-06T04:41:38.867Z,7.04
2022-11-06T04:42:38.862Z,7.04
2022-11-06T04:43:38.861Z,7.01
2022-11-06T04:44:38.847Z,7.04
2022-11-06T04:45:38.858Z,7.11
2022-11-06T04:46:38.831Z,7.08
2022-11-06T04:47:38.837Z,7.06
2022-11-06T04:48:38.857Z,7.10
2022-11-06T04:49:38.812Z,7.15
2022-11-06T04:50:38.796Z,7.21
2022-11-06T04:51:38.805Z,7.10
2022-11-06T04:52:59.795Z,7.10
2022-11-06T04:53:38.783Z,7.11
2022-11-06T04:54:38.777Z,7.04
2022-11-06T04:55:39.604Z,7.10
2022-11-06T04:56:44.524Z,7.16
2022-11-06T04:57:39.758Z,7.11
2022-11-06T04:58:38.820Z,7.10
2022-11-06T04:59:38.759Z,7.16
2022-11-06T05:00:38.820Z,7.01
2022-11-06T05:01:39.076Z,7.13
2022-11-06T05:02:38.716Z,7.04
2022-11-06T05:03:38.749Z,7.11
2022-11-06T05:04:39.136Z,7.10
2022-11-06T05:05:38.702Z,7.07
2022-11-06T05:06:38.698Z,7.03
2022-11-06T05:07:38.684Z,7.03
2022-11-06T05:08:38.715Z,7.03
2022-11-06T05:09:39.106Z,7.08
2022-11-06T05:10:38.671Z,7.13
2022-11-06T05:11:38.675Z,7.16
2022-11-06T05:12:38.642Z,7.13
2022-11-06T05:13:38.637Z,7.06
2022-11-06T05:14:38.646Z,7.11
2022-11-06T05:15:38.640Z,7.22
2022-11-06T05:16:38.612Z,7.19
2022-11-06T05:17:38.629Z,7.15
2022-11-06T05:18:38.612Z,7.18
2022-11-06T05:19:38.598Z,7.19
2022-11-06T05:20:39.076Z,7.19
2022-11-06T05:21:38.610Z,7.18
2022-11-06T05:22:38.574Z,7.31
2022-11-06T05:23:38.589Z,7.25
2022-11-06T05:24:38.576Z,7.24
2022-11-06T05:25:38.555Z,7.25
2022-11-06T05:26:39.266Z,7.21
2022-11-06T05:27:38.537Z,7.22
2022-11-06T05:28:38.541Z,7.24
2022-11-06T05:29:38.531Z,7.22
2022-11-06T05:30:38.553Z,7.18
2022-11-06T05:31:38.521Z,7.34
2022-11-06T05:32:38.509Z,7.31
2022-11-06T05:33:38.522Z,7.33
2022-11-06T05:34:38.501Z,7.34
2022-11-06T05:35:38.484Z,7.25
2022-11-06T05:36:38.927Z,7.26
2022-11-06T05:37:38.488Z,7.39
2022-11-06T05:38:39.172Z,7.29
2022-11-06T05:39:41.828Z,7.31
2022-11-06T05:40:38.455Z,7.36
2022-11-06T05:41:38.468Z,7.33
2022-11-06T05:42:38.452Z,7.31
2022-11-06T05:43:38.435Z,7.29
2022-11-06T05:44:39.163Z,7.34
2022-11-06T05:45:38.433Z,7.21
2022-11-06T05:46:53.836Z,7.40
2022-11-06T05:47:39.851Z,7.42
2022-11-06T05:48:38.404Z,7.33
2022-11-06T05:49:38.442Z,7.36
2022-11-06T05:50:38.384Z,7.37
2022-11-06T05:51:38.387Z,7.34
2022-11-06T05:52:38.375Z,7.29
2022-11-06T05:53:38.372Z,7.34
2022-11-06T05:54:39.346Z,7.34
2022-11-06T05:55:38.353Z,7.33
2022-11-06T05:56:38.360Z,7.29
2022-11-06T05:57:38.551Z,7.34
2022-11-06T05:58:38.341Z,7.28
2022-11-06T05:59:38.357Z,7.34
2022-11-06T06:00:38.342Z,7.31
2022-11-06T06:01:38.494Z,7.34
2022-11-06T06:02:38.447Z,7.33
2022-11-06T06:03:38.309Z,7.36
2022-11-06T06:04:38.302Z,7.34
2022-11-06T06:05:38.490Z,7.31
2022-11-06T06:06:38.291Z,7.42
2022-11-06T06:07:38.297Z,7.31
2022-11-06T06:08:38.284Z,7.37
2022-11-06T06:09:39.083Z,7.37
2022-11-06T06:10:39.236Z,7.40
2022-11-06T06:11:38.263Z,7.36
2022-11-06T06:12:38.250Z,7.25
2022-11-06T06:13:38.234Z,7.28
2022-11-06T06:14:38.233Z,7.36
2022-11-06T06:15:38.274Z,7.47
2022-11-06T06:16:38.219Z,7.40
2022-11-06T06:17:38.216Z,7.39
2022-11-06T06:18:38.213Z,7.43
2022-11-06T06:19:38.219Z,7.46
2022-11-06T06:20:38.217Z,7.31
2022-11-06T06:21:38.220Z,7.31
2022-11-06T06:22:38.186Z,7.42
2022-11-06T06:23:38.174Z,7.43
2022-11-06T06:24:39.576Z,7.39
2022-11-06T06:25:38.176Z,7.37
2022-11-06T06:26:39.481Z,7.43
2022-11-06T06:27:38.142Z,7.36
2022-11-06T06:28:38.226Z,7.40
2022-11-06T06:29:38.142Z,7.44
2022-11-06T06:30:38.131Z,7.46
2022-11-06T06:31:38.119Z,7.49
2022-11-06T06:32:38.112Z,7.46
2022-11-06T06:33:38.111Z,7.52
2022-11-06T06:34:39.201Z,7.36
2022-11-06T06:35:38.099Z,7.44
2022-11-06T06:36:38.087Z,7.54
2022-11-06T06:37:38.100Z,7.46
2022-11-06T06:38:38.081Z,7.46
2022-11-06T06:39:38.060Z,7.50
2022-11-06T06:40:39.045Z,7.47
2022-11-06T06:41:38.055Z,7.44
2022-11-06T06:42:38.038Z,7.46
2022-11-06T06:43:38.054Z,7.46
2022-11-06T06:44:38.036Z,7.49
2022-11-06T06:45:38.025Z,7.49
2022-11-06T06:46:38.019Z,7.47
2022-11-06T06:47:39.274Z,7.46
2022-11-06T06:48:38.000Z,7.42
2022-11-06T06:49:38.003Z,7.49
2022-11-06T06:50:37.993Z,7.61
2022-11-06T06:51:37.984Z,7.54
2022-11-06T06:52:37.972Z,7.47
2022-11-06T06:53:38.008Z,7.61
2022-11-06T06:54:38.010Z,7.61
2022-11-06T06:55:37.965Z,7.55
2022-11-06T06:56:37.958Z,7.57
2022-11-06T06:57:37.953Z,7.64
2022-11-06T06:58:37.967Z,7.58
2022-11-06T06:59:37.940Z,7.69
2022-11-06T07:00:38.045Z,7.62
2022-11-06T07:01:38.144Z,7.57
2022-11-06T07:02:37.910Z,7.58
2022-11-06T07:03:37.915Z,7.66
2022-11-06T07:04:37.918Z,7.64
2022-11-06T07:05:37.899Z,7.60
2022-11-06T07:06:37.879Z,7.61
2022-11-06T07:07:37.886Z,7.71
2022-11-06T07:08:37.876Z,7.76
2022-11-06T07:09:58.893Z,7.68
2022-11-06T07:10:37.861Z,7.73
2022-11-06T07:11:37.849Z,7.74
2022-11-06T07:12:37.845Z,7.77
2022-11-06T07:13:37.847Z,7.71
2022-11-06T07:14:37.831Z,7.71
2022-11-06T07:15:38.005Z,7.77
2022-11-06T07:16:37.822Z,7.73
2022-11-06T07:17:37.837Z,7.76
2022-11-06T07:18:37.813Z,7.77
2022-11-06T07:19:38.151Z,7.76
2022-11-06T07:20:38.158Z,7.81
2022-11-06T07:21:37.794Z,7.78
2022-11-06T07:22:37.976Z,7.78
2022-11-06T07:23:37.774Z,7.84
2022-11-06T07:24:37.767Z,7.81
2022-11-06T07:25:37.804Z,7.84
2022-11-06T07:26:37.849Z,7.87
2022-11-06T07:27:37.841Z,7.95
2022-11-06T07:28:37.747Z,8.05
2022-11-06T07:29:37.738Z,7.88
2022-11-06T07:30:38.170Z,7.96
2022-11-06T07:31:37.719Z,7.99
2022-11-06T07:32:37.746Z,7.98
2022-11-06T07:33:37.717Z,7.99
2022-11-06T07:34:37.700Z,8.06
2022-11-06T07:35:37.700Z,7.99
2022-11-06T07:36:37.704Z,7.95
2022-11-06T07:37:37.679Z,8.06
2022-11-06T07:38:37.681Z,8.14
2022-11-06T07:39:37.665Z,8.23
2022-11-06T07:40:37.660Z,8.20
2022-11-06T07:41:37.694Z,8.31
2022-11-06T07:42:42.350Z,8.38
2022-11-06T07:43:38.643Z,8.39
2022-11-06T07:44:37.641Z,8.41
2022-11-06T07:45:37.626Z,8.49
2022-11-06T07:46:37.621Z,8.50
2022-11-06T07:47:37.612Z,8.44
2022-11-06T07:48:37.603Z,8.38
2022-11-06T07:49:37.612Z,8.44
2022-11-06T07:50:37.588Z,8.42
2022-11-06T07:51:37.590Z,8.44
2022-11-06T07:52:37.578Z,8.50
2022-11-06T07:53:40.289Z,8.46
2022-11-06T07:54:37.552Z,8.50
2022-11-06T07:55:41.972Z,8.53
2022-11-06T07:56:38.544Z,8.55
2022-11-06T07:57:37.558Z,8.47
2022-11-06T07:58:38.266Z,8.52
2022-11-06T07:59:37.516Z,8.46
2022-11-06T08:00:37.592Z,8.56
2022-11-06T08:01:37.667Z,8.65
2022-11-06T08:02:37.635Z,8.71
2022-11-06T08:03:37.513Z,8.60
2022-11-06T08:04:37.493Z,8.72
2022-11-06T08:05:37.486Z,8.63
2022-11-06T08:06:38.421Z,8.83
2022-11-06T08:07:37.462Z,9.27
2022-11-06T08:08:38.450Z,9.67
2022-11-06T08:09:37.457Z,10.03
2022-11-06T08:10:37.449Z,10.21
2022-11-06T08:11:37.437Z,10.57
2022-11-06T08:12:37.426Z,10.78
2022-11-06T08:13:37.450Z,10.79
2022-11-06T08:14:41.467Z,10.97
2022-11-06T08:15:37.414Z,10.73
2022-11-06T08:16:37.402Z,10.85
2022-11-06T08:17:37.391Z,10.90
2022-11-06T08:18:37.392Z,10.93
2022-11-06T08:19:37.395Z,11.08
2022-11-06T08:20:37.370Z,11.12
2022-11-06T08:21:37.412Z,11.20
2022-11-06T08:22:37.354Z,11.09
2022-11-06T08:23:37.357Z,11.13
2022-11-06T08:24:37.350Z,11.30
2022-11-06T08:25:37.335Z,11.23
2022-11-06T08:26:37.328Z,11.37
2022-11-06T08:27:37.331Z,11.61
2022-11-06T08:28:37.357Z,11.64
2022-11-06T08:29:41.293Z,11.74
2022-11-06T08:30:37.942Z,11.82
2022-11-06T08:31:37.289Z,11.91
2022-11-06T08:32:37.280Z,11.88
2022-11-06T08:33:37.289Z,11.91
2022-11-06T08:34:37.281Z,12.00
2022-11-06T08:35:37.267Z,12.05
2022-11-06T08:36:37.262Z,12.15
2022-11-06T08:37:37.245Z,12.13
2022-11-06T08:38:37.956Z,12.23
2022-11-06T08:39:37.265Z,12.25
2022-11-06T08:40:37.225Z,12.40
2022-11-06T08:41:37.238Z,12.40
2022-11-06T08:42:37.230Z,12.65
2022-11-06T08:43:37.217Z,12.69
2022-11-06T08:44:37.201Z,12.63
2022-11-06T08:45:37.313Z,12.63
2022-11-06T08:46:37.692Z,12.84
2022-11-06T08:47:37.182Z,13.06
2022-11-06T08:48:37.166Z,12.83
2022-11-06T08:49:37.170Z,12.91
2022-11-06T08:50:37.609Z,12.83
2022-11-06T08:51:37.172Z,12.77
2022-11-06T08:52:37.198Z,13.05
2022-11-06T08:53:37.206Z,13.13
2022-11-06T08:54:37.138Z,13.04
2022-11-06T08:55:37.117Z,12.88
2022-11-06T08:56:38.415Z,13.02
2022-11-06T08:57:37.117Z,13.43
2022-11-06T08:58:37.100Z,13.61
2022-11-06T08:59:37.087Z,13.64
2022-11-06T09:00:37.081Z,13.51
2022-11-06T09:01:37.237Z,13.29
2022-11-06T09:02:37.178Z,12.99
2022-11-06T09:03:37.067Z,12.86
2022-11-06T09:04:41.366Z,12.98
2022-11-06T09:05:37.041Z,13.09
2022-11-06T09:06:37.040Z,13.19
2022-11-06T09:07:37.025Z,13.23
2022-11-06T09:08:37.020Z,13.30
2022-11-06T09:09:37.019Z,13.29
2022-11-06T09:10:37.003Z,13.54
2022-11-06T09:11:37.029Z,13.67
2022-11-06T09:12:37.006Z,13.67
2022-11-06T09:13:37.568Z,13.57
2022-11-06T09:14:36.975Z,13.53
2022-11-06T09:15:36.979Z,13.29
2022-11-06T09:16:36.965Z,13.45
2022-11-06T09:17:36.973Z,13.55
2022-11-06T09:18:36.948Z,13.43
2022-11-06T09:19:36.935Z,12.95
2022-11-06T09:20:36.929Z,12.98
2022-11-06T09:21:36.930Z,12.66
2022-11-06T09:22:36.912Z,12.38
2022-11-06T09:23:36.917Z,12.40
2022-11-06T09:25:01.224Z,12.73
2022-11-06T09:25:37.889Z,12.86
2022-11-06T09:26:36.891Z,13.04
2022-11-06T09:27:36.883Z,13.29
2022-11-06T09:28:36.867Z,13.55
2022-11-06T09:29:36.868Z,13.39
2022-11-06T09:30:37.289Z,13.49
2022-11-06T09:31:36.895Z,13.45
2022-11-06T09:32:36.847Z,13.71
2022-11-06T09:33:36.867Z,13.82
2022-11-06T09:34:36.833Z,13.85
2022-11-06T09:35:36.824Z,13.73
2022-11-06T09:36:36.812Z,13.76
2022-11-06T09:37:36.826Z,13.80
2022-11-06T09:38:36.800Z,14.03
2022-11-06T09:39:36.802Z,14.11
2022-11-06T09:40:36.798Z,14.33
2022-11-06T09:41:36.780Z,14.23
2022-11-06T09:42:37.553Z,14.15
2022-11-06T09:44:03.429Z,14.13
2022-11-06T09:44:37.754Z,14.05
2022-11-06T09:45:36.760Z,13.90
2022-11-06T09:46:36.741Z,13.93
2022-11-06T09:47:36.745Z,14.01
2022-11-06T09:48:36.735Z,13.63
2022-11-06T09:49:36.754Z,13.65
2022-11-06T09:50:36.725Z,13.79
2022-11-06T09:51:36.729Z,13.73
2022-11-06T09:52:36.736Z,13.53
2022-11-06T09:53:36.700Z,13.49
2022-11-06T09:54:36.694Z,13.67
2022-11-06T09:55:36.676Z,13.63
2022-11-06T09:56:36.676Z,13.68
2022-11-06T09:57:36.676Z,13.68
2022-11-06T09:58:36.663Z,13.63
2022-11-06T09:59:36.668Z,13.63
2022-11-06T10:00:36.664Z,13.80
2022-11-06T10:01:36.792Z,13.90
2022-11-06T10:02:36.704Z,14.13
2022-11-06T10:03:36.624Z,13.94
2022-11-06T10:04:36.629Z,14.12
2022-11-06T10:05:36.741Z,14.19
2022-11-06T10:06:36.612Z,13.88
2022-11-06T10:07:36.589Z,14.04
2022-11-06T10:08:36.598Z,14.15
2022-11-06T10:09:36.572Z,14.16
2022-11-06T10:10:37.584Z,14.21
2022-11-06T10:11:36.568Z,14.15
2022-11-06T10:12:36.556Z,13.96
2022-11-06T10:13:36.559Z,14.12
2022-11-06T10:14:36.542Z,13.76
2022-11-06T10:15:36.531Z,13.86
2022-11-06T10:16:37.704Z,14.03
2022-11-06T10:17:36.525Z,14.18
2022-11-06T10:18:36.512Z,14.45
2022-11-06T10:19:36.509Z,14.41
2022-11-06T10:20:36.503Z,14.53
2022-11-06T10:21:37.241Z,14.61
2022-11-06T10:22:36.488Z,14.52
2022-11-06T10:23:36.496Z,14.66
2022-11-06T10:24:36.466Z,14.40
2022-11-06T10:25:36.465Z,14.23
2022-11-06T10:26:36.454Z,14.23
2022-11-06T10:27:36.483Z,14.27
2022-11-06T10:28:36.445Z,14.37
2022-11-06T10:29:36.447Z,14.26
2022-11-06T10:30:36.510Z,14.26
2022-11-06T10:31:36.421Z,14.36
2022-11-06T10:32:36.418Z,14.34
2022-11-06T10:33:36.432Z,14.31
2022-11-06T10:34:36.404Z,14.22
2022-11-06T10:35:38.019Z,14.38
2022-11-06T10:36:36.380Z,14.37
2022-11-06T10:37:36.680Z,14.44
2022-11-06T10:38:36.370Z,14.51
2022-11-06T10:39:36.365Z,14.52
2022-11-06T10:40:36.359Z,14.51
2022-11-06T10:41:36.771Z,14.61
2022-11-06T10:42:38.325Z,14.59
2022-11-06T10:43:36.335Z,14.56
2022-11-06T10:44:36.342Z,14.73
2022-11-06T10:45:36.322Z,14.86
2022-11-06T10:46:36.506Z,14.95
2022-11-06T10:47:36.301Z,15.01
2022-11-06T10:48:41.164Z,15.07
2022-11-06T10:49:37.295Z,15.10
2022-11-06T10:50:36.281Z,15.20
2022-11-06T10:51:36.270Z,15.17
2022-11-06T10:52:37.516Z,15.23
2022-11-06T10:53:36.292Z,14.97
2022-11-06T10:54:36.270Z,14.93
2022-11-06T10:55:36.249Z,15.08
2022-11-06T10:56:36.237Z,14.99
2022-11-06T10:57:36.235Z,14.90
2022-11-06T10:58:36.984Z,14.97
2022-11-06T10:59:36.217Z,15.03
2022-11-06T11:00:36.212Z,15.15
2022-11-06T11:01:36.373Z,15.01
2022-11-06T11:02:36.321Z,15.01
2022-11-06T11:03:36.216Z,14.90
2022-11-06T11:04:36.175Z,14.77
2022-11-06T11:05:36.169Z,14.95
2022-11-06T11:06:36.195Z,15.03
2022-11-06T11:07:36.160Z,15.04
2022-11-06T11:08:36.145Z,15.10
2022-11-06T11:09:36.533Z,15.15
2022-11-06T11:10:36.129Z,15.22
2022-11-06T11:11:36.138Z,15.35
2022-11-06T11:12:36.125Z,15.40
2022-11-06T11:13:36.152Z,15.10
2022-11-06T11:14:36.124Z,15.12
2022-11-06T11:15:41.777Z,15.19
2022-11-06T11:18:02.752Z,15.10
2022-11-06T11:19:02.460Z,15.10
2022-11-06T11:20:02.455Z,15.12
2022-11-06T11:21:02.446Z,15.17
2022-11-06T11:22:02.448Z,15.32
2022-11-06T11:23:02.493Z,15.27
2022-11-06T11:24:02.454Z,15.19
2022-11-06T11:25:02.441Z,15.11
2022-11-06T11:26:02.419Z,15.29
2022-11-06T11:27:02.422Z,15.27
2022-11-06T11:28:04.934Z,15.19
2022-11-06T11:29:02.395Z,15.40
2022-11-06T11:30:02.385Z,15.33
2022-11-06T11:31:03.257Z,15.30
2022-11-06T11:32:02.387Z,15.45
2022-11-06T11:33:02.371Z,15.45
2022-11-06T11:34:02.355Z,15.65
2022-11-06T11:35:02.356Z,15.66
2022-11-06T11:36:02.359Z,15.80
2022-11-06T11:37:02.333Z,15.95
2022-11-06T11:38:02.331Z,16.13
2022-11-06T11:39:02.337Z,16.13
2022-11-06T11:40:02.313Z,16.24
2022-11-06T11:41:02.337Z,16.29
2022-11-06T11:42:02.288Z,16.43
2022-11-06T11:43:02.301Z,16.42
2022-11-06T11:44:02.840Z,16.51
2022-11-06T11:45:02.280Z,16.46
2022-11-06T11:46:02.387Z,16.67
2022-11-06T11:47:05.569Z,16.59
2022-11-06T11:48:03.263Z,16.67
2022-11-06T11:49:17.140Z,16.73
2022-11-06T11:50:02.266Z,16.59
2022-11-06T11:51:02.227Z,16.67
2022-11-06T11:52:02.233Z,16.54
2022-11-06T11:54:12.881Z,16.67
2022-11-06T11:55:12.890Z,16.64
2022-11-06T11:56:12.914Z,16.73
2022-11-06T11:57:12.914Z,16.82
2022-11-06T11:58:13.184Z,16.99
2022-11-06T11:59:12.846Z,17.22
2022-11-06T12:00:12.829Z,17.01
2022-11-06T12:01:12.830Z,17.20
2022-11-06T12:02:13.076Z,17.13
2022-11-06T12:03:13.463Z,16.90
2022-11-06T12:04:12.824Z,16.65
2022-11-06T12:05:12.814Z,16.55
2022-11-06T12:06:12.785Z,16.61
2022-11-06T12:07:12.794Z,16.62
2022-11-06T12:08:13.285Z,16.73
2022-11-06T12:09:12.776Z,16.61
2022-11-06T12:10:12.886Z,16.39
2022-11-06T12:11:12.773Z,16.28
2022-11-06T12:12:13.986Z,16.34
2022-11-06T12:13:12.741Z,16.43
2022-11-06T12:14:12.723Z,16.42
2022-11-06T12:15:12.781Z,16.42
2022-11-06T12:16:12.780Z,16.32
2022-11-06T12:17:12.706Z,16.49
2022-11-06T12:18:13.053Z,16.18
2022-11-06T12:19:12.690Z,16.51
2022-11-06T12:20:13.498Z,16.36
2022-11-06T12:21:12.687Z,16.16
2022-11-06T12:22:12.670Z,16.02
2022-11-06T12:23:12.680Z,15.84
2022-11-06T12:24:12.664Z,15.60
2022-11-06T12:25:12.654Z,15.70
2022-11-06T12:26:12.671Z,15.98
2022-11-06T12:27:12.636Z,16.33
2022-11-06T12:28:12.988Z,16.55
2022-11-06T12:29:12.646Z,16.64
2022-11-06T12:30:13.458Z,16.58
2022-11-06T12:31:12.608Z,16.65
2022-11-06T12:32:12.603Z,16.59
2022-11-06T12:33:12.626Z,16.39
2022-11-06T12:34:17.259Z,16.49
2022-11-06T12:35:13.579Z,16.32
2022-11-06T12:36:12.612Z,16.55
2022-11-06T12:37:12.559Z,16.73
2022-11-06T12:38:13.078Z,16.58
2022-11-06T12:39:12.553Z,16.33
2022-11-06T12:40:12.540Z,16.44
2022-11-06T12:41:12.543Z,16.24
2022-11-06T12:42:13.501Z,16.14
2022-11-06T12:43:12.509Z,16.24
2022-11-06T12:44:12.549Z,16.21
2022-11-06T12:45:12.504Z,16.25
2022-11-06T12:46:12.507Z,16.42
2022-11-06T12:47:12.539Z,16.77
2022-11-06T12:48:12.799Z,17.35
2022-11-06T12:49:13.111Z,17.16
2022-11-06T12:50:12.470Z,16.73
2022-11-06T12:51:12.461Z,16.42
2022-11-06T12:52:12.764Z,16.18
2022-11-06T12:53:12.486Z,15.83
2022-11-06T12:54:12.436Z,15.45
2022-11-06T12:55:13.628Z,15.23
2022-11-06T12:56:12.451Z,15.50
2022-11-06T12:57:12.423Z,15.44
2022-11-06T12:58:12.906Z,15.32
2022-11-06T12:59:12.410Z,14.92
2022-11-06T13:00:12.526Z,14.58
2022-11-06T13:01:12.858Z,14.37
2022-11-06T13:02:12.468Z,14.27
2022-11-06T13:03:12.374Z,14.13
2022-11-06T13:04:12.370Z,14.23
2022-11-06T13:05:12.388Z,14.19
2022-11-06T13:06:13.630Z,14.11
2022-11-06T13:07:12.353Z,14.09
2022-11-06T13:08:12.823Z,13.97
2022-11-06T13:09:12.330Z,13.96
2022-11-06T13:10:12.448Z,13.73
2022-11-06T13:11:12.321Z,13.68